sensor_id;sensor_type;location;lat;lon;timestamp;pressure;altitude;pressure_sealevel;temperature;humidity
48244;BME280;34053;51.088;6.572;2023-03-20T00:00:33;101389.31;;;11.40;67.87
48244;BME280;34053;51.088;6.572;2023-03-20T00:03:04;101385.13;;;11.29;68.24
48244;BME280;34053;51.088;6.572;2023-03-20T00:05:34;101391.28;;;11.30;67.87
48244;BME280;34053;51.088;6.572;2023-03-20T00:08:06;101386.09;;;10.77;69.55
48244;BME280;34053;51.088;6.572;2023-03-20T00:10:39;101387.56;;;10.93;69.00
48244;BME280;34053;51.088;6.572;2023-03-20T00:13:31;101392.22;;;10.77;69.09
48244;BME280;34053;51.088;6.572;2023-03-20T00:16:01;101399.41;;;11.16;67.77
48244;BME280;34053;51.088;6.572;2023-03-20T00:18:32;101402.88;;;11.18;67.68
48244;BME280;34053;51.088;6.572;2023-03-20T00:21:03;101404.53;;;11.22;67.05
48244;BME280;34053;51.088;6.572;2023-03-20T00:23:34;101402.28;;;11.02;67.61
48244;BME280;34053;51.088;6.572;2023-03-20T00:26:07;101401.56;;;10.94;67.73
48244;BME280;34053;51.088;6.572;2023-03-20T00:28:41;101409.63;;;10.83;67.51
48244;BME280;34053;51.088;6.572;2023-03-20T00:31:28;101411.84;;;11.05;67.29
48244;BME280;34053;51.088;6.572;2023-03-20T00:34:03;101403.84;;;11.12;67.13
48244;BME280;34053;51.088;6.572;2023-03-20T00:36:34;101409.97;;;11.13;66.97
48244;BME280;34053;51.088;6.572;2023-03-20T00:39:05;101415.13;;;11.19;66.60
48244;BME280;34053;51.088;6.572;2023-03-20T00:41:52;101417.91;;;11.10;66.86
48244;BME280;34053;51.088;6.572;2023-03-20T00:44:31;101406.28;;;11.23;66.51
48244;BME280;34053;51.088;6.572;2023-03-20T00:47:13;101400.22;;;11.20;66.21
48244;BME280;34053;51.088;6.572;2023-03-20T00:49:47;101408.00;;;11.24;65.79
48244;BME280;34053;51.088;6.572;2023-03-20T00:52:20;101412.38;;;11.25;66.38
48244;BME280;34053;51.088;6.572;2023-03-20T00:54:51;101409.75;;;11.25;66.00
48244;BME280;34053;51.088;6.572;2023-03-20T01:02:28;101396.53;;;11.28;65.91
48244;BME280;34053;51.088;6.572;2023-03-20T01:05:00;101394.81;;;11.27;65.76
48244;BME280;34053;51.088;6.572;2023-03-20T01:07:31;101393.09;;;11.26;65.63
48244;BME280;34053;51.088;6.572;2023-03-20T01:10:02;101385.22;;;11.26;65.55
48244;BME280;34053;51.088;6.572;2023-03-20T01:12:33;101374.81;;;11.20;65.75
48244;BME280;34053;51.088;6.572;2023-03-20T01:15:15;101379.06;;;11.26;65.57
48244;BME280;34053;51.088;6.572;2023-03-20T01:17:47;101389.97;;;11.06;65.56
48244;BME280;34053;51.088;6.572;2023-03-20T01:20:27;101383.69;;;11.13;65.48
48244;BME280;34053;51.088;6.572;2023-03-20T01:22:57;101381.91;;;11.15;65.94
48244;BME280;34053;51.088;6.572;2023-03-20T01:25:28;101379.44;;;11.07;66.09
48244;BME280;34053;51.088;6.572;2023-03-20T01:27:58;101362.38;;;10.83;65.61
48244;BME280;34053;51.088;6.572;2023-03-20T01:30:31;101362.81;;;11.07;65.71
48244;BME280;34053;51.088;6.572;2023-03-20T01:33:09;101356.03;;;10.95;66.17
48244;BME280;34053;51.088;6.572;2023-03-20T01:35:42;101359.34;;;11.05;65.70
48244;BME280;34053;51.088;6.572;2023-03-20T01:38:19;101356.75;;;11.03;65.93
48244;BME280;34053;51.088;6.572;2023-03-20T01:40:56;101345.44;;;10.99;65.92
48244;BME280;34053;51.088;6.572;2023-03-20T01:43:28;101348.19;;;10.93;66.06
48244;BME280;34053;51.088;6.572;2023-03-20T01:46:02;101347.31;;;10.94;65.94
48244;BME280;34053;51.088;6.572;2023-03-20T01:51:23;101353.47;;;10.90;66.17
48244;BME280;34053;51.088;6.572;2023-03-20T01:56:35;101357.88;;;10.90;66.12
48244;BME280;34053;51.088;6.572;2023-03-20T01:59:14;101364.84;;;10.92;65.93
48244;BME280;34053;51.088;6.572;2023-03-20T02:01:47;101368.44;;;10.86;65.47
48244;BME280;34053;51.088;6.572;2023-03-20T02:04:20;101371.81;;;10.93;66.10
48244;BME280;34053;51.088;6.572;2023-03-20T02:06:53;101376.22;;;10.91;65.60
48244;BME280;34053;51.088;6.572;2023-03-20T02:09:24;101375.22;;;10.98;65.46
48244;BME280;34053;51.088;6.572;2023-03-20T02:11:55;101377.06;;;10.93;65.30
48244;BME280;34053;51.088;6.572;2023-03-20T02:14:27;101382.41;;;10.87;66.12
48244;BME280;34053;51.088;6.572;2023-03-20T02:16:57;101378.97;;;10.83;65.92
48244;BME280;34053;51.088;6.572;2023-03-20T02:19:32;101371.22;;;10.77;66.15
48244;BME280;34053;51.088;6.572;2023-03-20T02:28:09;101377.38;;;10.75;66.59
48244;BME280;34053;51.088;6.572;2023-03-20T02:37:14;101361.03;;;10.60;66.10
48244;BME280;34053;51.088;6.572;2023-03-20T02:42:55;101370.56;;;10.66;65.77
48244;BME280;34053;51.088;6.572;2023-03-20T02:45:45;101377.09;;;10.38;67.20
48244;BME280;34053;51.088;6.572;2023-03-20T02:51:34;101380.44;;;10.50;66.31
48244;BME280;34053;51.088;6.572;2023-03-20T02:57:13;101382.13;;;10.52;65.86
48244;BME280;34053;51.088;6.572;2023-03-20T02:59:54;101378.66;;;10.52;66.19
48244;BME280;34053;51.088;6.572;2023-03-20T03:03:00;101386.56;;;10.49;66.05
48244;BME280;34053;51.088;6.572;2023-03-20T03:05:28;101395.31;;;10.48;65.68
48244;BME280;34053;51.088;6.572;2023-03-20T03:08:03;101384.81;;;10.48;65.85
48244;BME280;34053;51.088;6.572;2023-03-20T03:10:44;101377.81;;;10.50;65.91
48244;BME280;34053;51.088;6.572;2023-03-20T03:13:20;101374.31;;;10.48;66.24
48244;BME280;34053;51.088;6.572;2023-03-20T03:15:54;101366.50;;;10.46;66.10
48244;BME280;34053;51.088;6.572;2023-03-20T03:18:26;101356.88;;;10.45;66.48
48244;BME280;34053;51.088;6.572;2023-03-20T03:20:59;101351.66;;;10.44;66.26
48244;BME280;34053;51.088;6.572;2023-03-20T03:23:44;101358.66;;;10.45;65.81
48244;BME280;34053;51.088;6.572;2023-03-20T03:26:27;101363.09;;;10.39;66.07
48244;BME280;34053;51.088;6.572;2023-03-20T03:29:04;101378.25;;;10.19;66.90
48244;BME280;34053;51.088;6.572;2023-03-20T03:31:36;101387.69;;;10.29;66.37
48244;BME280;34053;51.088;6.572;2023-03-20T03:34:11;101383.28;;;10.33;65.97
48244;BME280;34053;51.088;6.572;2023-03-20T03:37:03;101400.78;;;10.32;65.92
48244;BME280;34053;51.088;6.572;2023-03-20T03:39:52;101405.16;;;10.30;66.09
48244;BME280;34053;51.088;6.572;2023-03-20T03:42:34;101409.59;;;10.27;66.12
48244;BME280;34053;51.088;6.572;2023-03-20T03:45:14;101406.16;;;10.23;66.20
48244;BME280;34053;51.088;6.572;2023-03-20T03:50:29;101409.97;;;10.00;67.20
48244;BME280;34053;51.088;6.572;2023-03-20T03:53:05;101395.31;;;9.85;67.55
48244;BME280;34053;51.088;6.572;2023-03-20T03:55:41;101391.53;;;10.06;67.19
48244;BME280;34053;51.088;6.572;2023-03-20T03:58:18;101388.97;;;10.03;67.26
48244;BME280;34053;51.088;6.572;2023-03-20T04:00:51;101382.53;;;9.62;68.79
48244;BME280;34053;51.088;6.572;2023-03-20T04:03:30;101383.91;;;9.88;68.13
48244;BME280;34053;51.088;6.572;2023-03-20T04:06:03;101387.59;;;9.74;68.24
48244;BME280;34053;51.088;6.572;2023-03-20T04:08:35;101384.91;;;9.79;68.53
48244;BME280;34053;51.088;6.572;2023-03-20T04:11:11;101380.50;;;9.83;68.19
48244;BME280;34053;51.088;6.572;2023-03-20T04:13:45;101372.72;;;9.76;67.99
48244;BME280;34053;51.088;6.572;2023-03-20T04:16:20;101378.72;;;9.85;68.29
48244;BME280;34053;51.088;6.572;2023-03-20T04:18:51;101375.13;;;9.92;67.05
48244;BME280;34053;51.088;6.572;2023-03-20T04:21:22;101383.78;;;9.97;67.80
48244;BME280;34053;51.088;6.572;2023-03-20T04:23:52;101377.69;;;9.97;67.49
48244;BME280;34053;51.088;6.572;2023-03-20T04:26:23;101368.16;;;9.91;67.29
48244;BME280;34053;51.088;6.572;2023-03-20T04:28:53;101360.25;;;9.92;67.09
48244;BME280;34053;51.088;6.572;2023-03-20T04:31:24;101364.66;;;9.92;67.47
48244;BME280;34053;51.088;6.572;2023-03-20T04:33:54;101357.63;;;9.94;67.38
48244;BME280;34053;51.088;6.572;2023-03-20T04:36:25;101360.22;;;9.96;67.13
48244;BME280;34053;51.088;6.572;2023-03-20T04:38:56;101359.41;;;9.92;67.78
48244;BME280;34053;51.088;6.572;2023-03-20T04:41:26;101365.47;;;9.96;67.17
48244;BME280;34053;51.088;6.572;2023-03-20T04:43:57;101378.59;;;9.94;67.22
48244;BME280;34053;51.088;6.572;2023-03-20T04:46:27;101382.53;;;9.62;68.84
48244;BME280;34053;51.088;6.572;2023-03-20T04:48:58;101384.41;;;9.51;69.10
48244;BME280;34053;51.088;6.572;2023-03-20T04:51:28;101374.94;;;9.39;69.65
48244;BME280;34053;51.088;6.572;2023-03-20T04:53:59;101379.13;;;9.52;69.04
48244;BME280;34053;51.088;6.572;2023-03-20T04:56:30;101374.81;;;9.47;68.93
48244;BME280;34053;51.088;6.572;2023-03-20T04:59:00;101378.22;;;9.55;69.01
48244;BME280;34053;51.088;6.572;2023-03-20T05:01:31;101377.53;;;9.42;69.62
48244;BME280;34053;51.088;6.572;2023-03-20T05:04:01;101380.28;;;9.26;70.16
48244;BME280;34053;51.088;6.572;2023-03-20T05:06:32;101372.47;;;9.22;70.40
48244;BME280;34053;51.088;6.572;2023-03-20T05:09:03;101372.63;;;9.09;70.86
48244;BME280;34053;51.088;6.572;2023-03-20T05:11:33;101373.28;;;9.32;70.06
48244;BME280;34053;51.088;6.572;2023-03-20T05:14:04;101371.59;;;9.26;70.12
48244;BME280;34053;51.088;6.572;2023-03-20T05:16:35;101373.69;;;8.90;71.85
48244;BME280;34053;51.088;6.572;2023-03-20T05:19:06;101367.41;;;9.08;70.67
48244;BME280;34053;51.088;6.572;2023-03-20T05:21:36;101366.41;;;9.20;70.38
48244;BME280;34053;51.088;6.572;2023-03-20T05:24:07;101360.41;;;9.11;70.91
48244;BME280;34053;51.088;6.572;2023-03-20T05:26:37;101366.81;;;8.81;71.57
48244;BME280;34053;51.088;6.572;2023-03-20T05:29:08;101364.34;;;8.62;72.40
48244;BME280;34053;51.088;6.572;2023-03-20T05:31:38;101361.78;;;8.59;72.87
48244;BME280;34053;51.088;6.572;2023-03-20T05:34:09;101367.19;;;8.31;74.42
48244;BME280;34053;51.088;6.572;2023-03-20T05:36:39;101360.97;;;8.45;73.77
48244;BME280;34053;51.088;6.572;2023-03-20T05:39:10;101367.09;;;8.50;73.91
48244;BME280;34053;51.088;6.572;2023-03-20T05:41:40;101365.34;;;8.44;73.45
48244;BME280;34053;51.088;6.572;2023-03-20T05:44:11;101359.88;;;8.72;72.35
48244;BME280;34053;51.088;6.572;2023-03-20T05:46:41;101362.69;;;8.54;73.21
48244;BME280;34053;51.088;6.572;2023-03-20T05:49:12;101366.13;;;8.62;72.85
48244;BME280;34053;51.088;6.572;2023-03-20T05:51:42;101374.69;;;8.79;71.85
48244;BME280;34053;51.088;6.572;2023-03-20T05:54:13;101374.75;;;8.70;71.66
48244;BME280;34053;51.088;6.572;2023-03-20T05:56:43;101372.13;;;8.72;72.27
48244;BME280;34053;51.088;6.572;2023-03-20T05:59:14;101373.19;;;8.47;73.08
48244;BME280;34053;51.088;6.572;2023-03-20T06:01:47;101371.50;;;8.34;73.53
48244;BME280;34053;51.088;6.572;2023-03-20T06:04:18;101370.56;;;8.47;73.45
48244;BME280;34053;51.088;6.572;2023-03-20T06:06:48;101361.88;;;8.39;73.39
48244;BME280;34053;51.088;6.572;2023-03-20T06:09:18;101367.91;;;8.55;72.60
48244;BME280;34053;51.088;6.572;2023-03-20T06:11:49;101373.38;;;8.19;73.86
48244;BME280;34053;51.088;6.572;2023-03-20T06:14:19;101371.56;;;8.28;73.70
48244;BME280;34053;51.088;6.572;2023-03-20T06:16:50;101368.91;;;8.34;73.25
48244;BME280;34053;51.088;6.572;2023-03-20T06:19:21;101369.75;;;8.36;72.53
48244;BME280;34053;51.088;6.572;2023-03-20T06:21:52;101367.94;;;8.46;72.38
48244;BME280;34053;51.088;6.572;2023-03-20T06:24:22;101370.59;;;8.40;72.61
48244;BME280;34053;51.088;6.572;2023-03-20T06:26:53;101372.25;;;8.59;71.32
48244;BME280;34053;51.088;6.572;2023-03-20T06:29:23;101371.22;;;8.74;71.32
48244;BME280;34053;51.088;6.572;2023-03-20T06:31:53;101375.50;;;8.81;70.81
48244;BME280;34053;51.088;6.572;2023-03-20T06:34:24;101384.19;;;8.85;70.92
48244;BME280;34053;51.088;6.572;2023-03-20T06:36:55;101372.84;;;8.88;70.54
48244;BME280;34053;51.088;6.572;2023-03-20T06:39:26;101367.59;;;8.92;70.96
48244;BME280;34053;51.088;6.572;2023-03-20T06:41:57;101361.47;;;8.92;70.93
48244;BME280;34053;51.088;6.572;2023-03-20T06:44:28;101372.72;;;9.00;70.41
48244;BME280;34053;51.088;6.572;2023-03-20T06:46:58;101372.69;;;9.03;70.29
48244;BME280;34053;51.088;6.572;2023-03-20T06:49:29;101389.19;;;9.10;69.85
48244;BME280;34053;51.088;6.572;2023-03-20T06:51:59;101385.69;;;9.12;70.00
48244;BME280;34053;51.088;6.572;2023-03-20T06:54:30;101397.94;;;9.10;69.63
48244;BME280;34053;51.088;6.572;2023-03-20T06:57:00;101407.47;;;9.16;69.62
48244;BME280;34053;51.088;6.572;2023-03-20T06:59:31;101406.53;;;9.22;69.64
48244;BME280;34053;51.088;6.572;2023-03-20T07:02:02;101410.94;;;9.17;69.37
48244;BME280;34053;51.088;6.572;2023-03-20T07:04:32;101425.00;;;9.09;69.52
48244;BME280;34053;51.088;6.572;2023-03-20T07:07:03;101419.69;;;9.16;69.39
48244;BME280;34053;51.088;6.572;2023-03-20T07:09:34;101426.06;;;8.85;69.68
48244;BME280;34053;51.088;6.572;2023-03-20T07:12:04;101435.47;;;9.06;69.83
48244;BME280;34053;51.088;6.572;2023-03-20T07:14:35;101432.75;;;9.19;69.70
48244;BME280;34053;51.088;6.572;2023-03-20T07:17:05;101434.34;;;9.32;68.67
48244;BME280;34053;51.088;6.572;2023-03-20T07:19:36;101440.06;;;8.82;70.70
48244;BME280;34053;51.088;6.572;2023-03-20T07:22:14;101441.88;;;8.73;70.75
48244;BME280;34053;51.088;6.572;2023-03-20T07:24:47;101448.84;;;8.74;70.64
48244;BME280;34053;51.088;6.572;2023-03-20T07:27:18;101437.53;;;8.69;70.86
48244;BME280;34053;51.088;6.572;2023-03-20T07:29:49;101441.09;;;8.60;70.66
48244;BME280;34053;51.088;6.572;2023-03-20T07:32:22;101437.47;;;8.81;70.11
48244;BME280;34053;51.088;6.572;2023-03-20T07:34:53;101444.53;;;8.71;70.21
48244;BME280;34053;51.088;6.572;2023-03-20T07:37:23;101443.75;;;8.52;70.78
48244;BME280;34053;51.088;6.572;2023-03-20T07:39:54;101446.34;;;8.60;70.51
48244;BME280;34053;51.088;6.572;2023-03-20T07:42:27;101448.09;;;8.61;70.73
48244;BME280;34053;51.088;6.572;2023-03-20T07:44:57;101448.09;;;8.61;70.81
48244;BME280;34053;51.088;6.572;2023-03-20T07:47:27;101454.25;;;8.50;70.86
48244;BME280;34053;51.088;6.572;2023-03-20T07:49:58;101450.72;;;8.59;70.74
48244;BME280;34053;51.088;6.572;2023-03-20T07:52:28;101451.56;;;8.57;71.02
48244;BME280;34053;51.088;6.572;2023-03-20T07:54:59;101452.50;;;8.49;70.59
48244;BME280;34053;51.088;6.572;2023-03-20T07:57:29;101456.94;;;8.33;71.19
48244;BME280;34053;51.088;6.572;2023-03-20T08:00:00;101454.31;;;8.38;70.72
48244;BME280;34053;51.088;6.572;2023-03-20T08:02:30;101451.69;;;8.38;70.66
48244;BME280;34053;51.088;6.572;2023-03-20T08:05:01;101452.50;;;8.45;70.69
48244;BME280;34053;51.088;6.572;2023-03-20T08:07:31;101454.25;;;8.47;70.57
48244;BME280;34053;51.088;6.572;2023-03-20T08:10:04;101455.19;;;8.31;70.57
48244;BME280;34053;51.088;6.572;2023-03-20T08:12:35;101455.13;;;8.46;70.94
48244;BME280;34053;51.088;6.572;2023-03-20T08:15:06;101456.00;;;8.45;70.74
48244;BME280;34053;51.088;6.572;2023-03-20T08:17:37;101455.88;;;8.67;69.82
48244;BME280;34053;51.088;6.572;2023-03-20T08:20:08;101465.50;;;8.62;69.74
48244;BME280;34053;51.088;6.572;2023-03-20T08:22:39;101465.44;;;8.70;70.34
48244;BME280;34053;51.088;6.572;2023-03-20T08:25:10;101475.03;;;8.71;70.41
48244;BME280;34053;51.088;6.572;2023-03-20T08:27:41;101473.31;;;8.65;70.99
48244;BME280;34053;51.088;6.572;2023-03-20T08:30:11;101464.63;;;8.61;69.77
48244;BME280;34053;51.088;6.572;2023-03-20T08:32:43;101474.28;;;8.55;69.37
48244;BME280;34053;51.088;6.572;2023-03-20T08:35:13;101471.59;;;8.65;69.74
48244;BME280;34053;51.088;6.572;2023-03-20T08:37:44;101462.00;;;8.64;68.55
48244;BME280;34053;51.088;6.572;2023-03-20T08:40:14;101468.94;;;8.70;69.33
48244;BME280;34053;51.088;6.572;2023-03-20T08:42:46;101462.03;;;8.63;68.80
48244;BME280;34053;51.088;6.572;2023-03-20T08:45:16;101470.69;;;8.71;68.38
48244;BME280;34053;51.088;6.572;2023-03-20T08:47:47;101469.75;;;8.77;68.80
48244;BME280;34053;51.088;6.572;2023-03-20T08:50:18;101466.38;;;8.62;68.91
48244;BME280;34053;51.088;6.572;2023-03-20T08:52:48;101466.34;;;8.67;68.21
48244;BME280;34053;51.088;6.572;2023-03-20T08:55:19;101461.22;;;8.48;68.22
48244;BME280;34053;51.088;6.572;2023-03-20T08:57:49;101471.56;;;8.67;68.51
48244;BME280;34053;51.088;6.572;2023-03-20T09:00:20;101473.38;;;8.56;68.38
48244;BME280;34053;51.088;6.572;2023-03-20T09:02:51;101480.25;;;8.74;68.22
48244;BME280;34053;51.088;6.572;2023-03-20T09:05:22;101480.25;;;8.72;68.16
48244;BME280;34053;51.088;6.572;2023-03-20T09:07:52;101476.75;;;8.76;68.65
48244;BME280;34053;51.088;6.572;2023-03-20T09:10:23;101474.19;;;8.70;68.18
48244;BME280;34053;51.088;6.572;2023-03-20T09:12:53;101471.53;;;8.73;67.94
48244;BME280;34053;51.088;6.572;2023-03-20T09:15:23;101474.25;;;8.61;66.77
48244;BME280;34053;51.088;6.572;2023-03-20T09:17:54;101484.69;;;8.61;66.88
48244;BME280;34053;51.088;6.572;2023-03-20T09:20:25;101480.22;;;8.77;66.95
48244;BME280;34053;51.088;6.572;2023-03-20T09:22:56;101478.41;;;8.87;66.28
48244;BME280;34053;51.088;6.572;2023-03-20T09:25:26;101481.00;;;8.90;65.43
48244;BME280;34053;51.088;6.572;2023-03-20T09:27:57;101484.53;;;8.82;64.85
48244;BME280;34053;51.088;6.572;2023-03-20T09:30:27;101478.47;;;8.79;64.31
48244;BME280;34053;51.088;6.572;2023-03-20T09:32:58;101477.53;;;8.88;63.96
48244;BME280;34053;51.088;6.572;2023-03-20T09:35:28;101475.81;;;8.84;64.76
48244;BME280;34053;51.088;6.572;2023-03-20T09:37:59;101477.56;;;8.81;64.41
48244;BME280;34053;51.088;6.572;2023-03-20T09:40:37;101476.53;;;9.01;63.86
48244;BME280;34053;51.088;6.572;2023-03-20T09:43:31;101473.03;;;9.04;63.89
48244;BME280;34053;51.088;6.572;2023-03-20T09:49:05;101480.19;;;8.80;63.06
48244;BME280;34053;51.088;6.572;2023-03-20T09:51:49;101483.69;;;8.82;62.85
48244;BME280;34053;51.088;6.572;2023-03-20T09:56:59;101470.63;;;8.77;62.14
48244;BME280;34053;51.088;6.572;2023-03-20T09:59:33;101481.03;;;8.87;62.13
48244;BME280;34053;51.088;6.572;2023-03-20T10:02:13;101485.34;;;8.94;62.57
48244;BME280;34053;51.088;6.572;2023-03-20T10:04:46;101483.66;;;8.87;62.66
48244;BME280;34053;51.088;6.572;2023-03-20T10:07:18;101478.34;;;8.94;63.47
48244;BME280;34053;51.088;6.572;2023-03-20T10:09:48;101477.44;;;9.00;62.93
48244;BME280;34053;51.088;6.572;2023-03-20T10:15:42;101479.22;;;8.95;63.02
48244;BME280;34053;51.088;6.572;2023-03-20T10:18:23;101474.06;;;8.86;63.22
48244;BME280;34053;51.088;6.572;2023-03-20T10:21:05;101468.78;;;8.92;62.91
48244;BME280;34053;51.088;6.572;2023-03-20T10:24:04;101462.56;;;9.04;64.04
48244;BME280;34053;51.088;6.572;2023-03-20T10:26:36;101472.13;;;9.06;62.16
48244;BME280;34053;51.088;6.572;2023-03-20T10:29:23;101460.09;;;8.84;62.46
48244;BME280;34053;51.088;6.572;2023-03-20T10:37:34;101476.78;;;8.70;63.08
48244;BME280;34053;51.088;6.572;2023-03-20T10:42:55;101474.03;;;8.87;63.77
48244;BME280;34053;51.088;6.572;2023-03-20T10:48:09;101466.19;;;8.90;64.62
48244;BME280;34053;51.088;6.572;2023-03-20T10:50:49;101474.91;;;8.86;64.72
48244;BME280;34053;51.088;6.572;2023-03-20T10:53:36;101477.53;;;8.88;63.57
48244;BME280;34053;51.088;6.572;2023-03-20T10:56:15;101463.53;;;8.89;63.15
48244;BME280;34053;51.088;6.572;2023-03-20T10:58:56;101465.47;;;8.65;63.69
48244;BME280;34053;51.088;6.572;2023-03-20T11:01:28;101466.22;;;8.82;63.78
48244;BME280;34053;51.088;6.572;2023-03-20T11:03:59;101465.41;;;8.77;64.28
48244;BME280;34053;51.088;6.572;2023-03-20T11:06:32;101474.06;;;8.86;65.56
48244;BME280;34053;51.088;6.572;2023-03-20T11:09:21;101466.22;;;8.82;64.67
48244;BME280;34053;51.088;6.572;2023-03-20T11:11:55;101460.38;;;8.43;67.55
48244;BME280;34053;51.088;6.572;2023-03-20T11:14:33;101462.03;;;8.57;67.98
48244;BME280;34053;51.088;6.572;2023-03-20T11:17:05;101459.34;;;8.69;68.71
48244;BME280;34053;51.088;6.572;2023-03-20T11:19:38;101458.41;;;8.78;69.76
48244;BME280;34053;51.088;6.572;2023-03-20T11:22:29;101451.44;;;8.78;68.60
48244;BME280;34053;51.088;6.572;2023-03-20T11:25:00;101448.06;;;8.62;69.23
48244;BME280;34053;51.088;6.572;2023-03-20T11:27:32;101451.63;;;8.47;70.24
48244;BME280;34053;51.088;6.572;2023-03-20T11:30:06;101449.91;;;8.46;68.37
48244;BME280;34053;51.088;6.572;2023-03-20T11:32:48;101455.16;;;8.35;68.87
48244;BME280;34053;51.088;6.572;2023-03-20T11:38:13;101444.69;;;8.40;70.26
48244;BME280;34053;51.088;6.572;2023-03-20T11:40:45;101442.06;;;8.46;70.48
48244;BME280;34053;51.088;6.572;2023-03-20T11:43:20;101451.69;;;8.38;71.23
48244;BME280;34053;51.088;6.572;2023-03-20T11:45:56;101445.53;;;8.45;71.02
48244;BME280;34053;51.088;6.572;2023-03-20T11:48:42;101443.78;;;8.50;70.68
48244;BME280;34053;51.088;6.572;2023-03-20T11:51:19;101442.75;;;8.73;69.82
48244;BME280;34053;51.088;6.572;2023-03-20T11:54:04;101432.25;;;8.78;69.39
48244;BME280;34053;51.088;6.572;2023-03-20T11:56:36;101441.09;;;8.63;68.71
48244;BME280;34053;51.088;6.572;2023-03-20T11:59:14;101433.28;;;8.55;69.40
48244;BME280;34053;51.088;6.572;2023-03-20T12:01:52;101431.53;;;8.57;68.86
48244;BME280;34053;51.088;6.572;2023-03-20T12:04:34;101428.72;;;8.84;68.65
48244;BME280;34053;51.088;6.572;2023-03-20T12:07:32;101421.69;;;8.89;69.12
48244;BME280;34053;51.088;6.572;2023-03-20T12:10:10;101417.47;;;8.74;68.29
48244;BME280;34053;51.088;6.572;2023-03-20T12:12:49;101412.06;;;8.94;69.07
48244;BME280;34053;51.088;6.572;2023-03-20T12:15:25;101412.00;;;8.97;68.62
48244;BME280;34053;51.088;6.572;2023-03-20T12:23:53;101405.97;;;8.92;69.35
48244;BME280;34053;51.088;6.572;2023-03-20T12:26:32;101406.66;;;9.12;69.49
48244;BME280;34053;51.088;6.572;2023-03-20T12:29:11;101405.66;;;9.23;70.07
48244;BME280;34053;51.088;6.572;2023-03-20T12:31:55;101401.16;;;9.34;68.41
48244;BME280;34053;51.088;6.572;2023-03-20T12:34:58;101389.81;;;9.35;68.17
48244;BME280;34053;51.088;6.572;2023-03-20T12:37:29;101388.19;;;9.25;66.84
48244;BME280;34053;51.088;6.572;2023-03-20T12:40:02;101391.59;;;9.32;67.14
48244;BME280;34053;51.088;6.572;2023-03-20T12:45:10;101379.28;;;9.38;65.56
48244;BME280;34053;51.088;6.572;2023-03-20T12:50:40;101374.13;;;9.32;65.10
48244;BME280;34053;51.088;6.572;2023-03-20T12:53:36;101369.59;;;9.47;65.00
48244;BME280;34053;51.088;6.572;2023-03-20T12:56:32;101373.13;;;9.42;64.96
48244;BME280;34053;51.088;6.572;2023-03-20T13:10:21;101358.22;;;9.48;65.13
48244;BME280;34053;51.088;6.572;2023-03-20T13:17:00;101351.22;;;9.50;65.12
48244;BME280;34053;51.088;6.572;2023-03-20T13:21:47;101348.41;;;9.67;65.42
48244;BME280;34053;51.088;6.572;2023-03-20T13:24:48;101346.72;;;9.61;64.76
48244;BME280;34053;51.088;6.572;2023-03-20T13:27:35;101346.78;;;9.56;64.29
48244;BME280;34053;51.088;6.572;2023-03-20T13:36:02;101343.13;;;9.68;65.80
48244;BME280;34053;51.088;6.572;2023-03-20T13:38:39;101348.94;;;9.89;65.48
48244;BME280;34053;51.088;6.572;2023-03-20T13:41:12;101335.75;;;9.97;64.86
48244;BME280;34053;51.088;6.572;2023-03-20T13:43:49;101346.06;;;10.07;65.13
48244;BME280;34053;51.088;6.572;2023-03-20T13:46:27;101345.41;;;9.93;64.26
48244;BME280;34053;51.088;6.572;2023-03-20T13:49:10;101346.25;;;9.95;64.84
48244;BME280;34053;51.088;6.572;2023-03-20T13:51:45;101338.34;;;9.98;64.56
48244;BME280;34053;51.088;6.572;2023-03-20T14:00:22;101335.63;;;10.04;64.70
48244;BME280;34053;51.088;6.572;2023-03-20T14:03:16;101334.00;;;9.96;64.97
48244;BME280;34053;51.088;6.572;2023-03-20T14:05:48;101334.72;;;10.05;64.84
48244;BME280;34053;51.088;6.572;2023-03-20T14:13:36;101326.72;;;10.15;65.04
48244;BME280;34053;51.088;6.572;2023-03-20T14:16:08;101316.13;;;10.21;64.83
48244;BME280;34053;51.088;6.572;2023-03-20T14:18:42;101309.25;;;10.14;64.94
48244;BME280;34053;51.088;6.572;2023-03-20T14:21:17;101313.75;;;10.05;64.94
48244;BME280;34053;51.088;6.572;2023-03-20T14:23:58;101311.06;;;10.12;64.23
48244;BME280;34053;51.088;6.572;2023-03-20T14:26:37;101303.22;;;10.08;63.83
48244;BME280;34053;51.088;6.572;2023-03-20T14:31:41;101304.19;;;10.03;64.22
48244;BME280;34053;51.088;6.572;2023-03-20T14:34:20;101307.66;;;10.05;64.19
48244;BME280;34053;51.088;6.572;2023-03-20T14:37:00;101308.56;;;10.02;65.24
48244;BME280;34053;51.088;6.572;2023-03-20T14:39:56;101299.97;;;9.94;65.04
48244;BME280;34053;51.088;6.572;2023-03-20T14:51:08;101312.00;;;10.04;65.81
48244;BME280;34053;51.088;6.572;2023-03-20T14:53:42;101305.06;;;10.03;65.40
48244;BME280;34053;51.088;6.572;2023-03-20T14:56:13;101297.16;;;10.05;66.10
48244;BME280;34053;51.088;6.572;2023-03-20T14:58:50;101302.47;;;10.00;65.81
48244;BME280;34053;51.088;6.572;2023-03-20T15:01:25;101304.25;;;9.98;64.58
48244;BME280;34053;51.088;6.572;2023-03-20T15:04:00;101301.53;;;10.06;64.99
48244;BME280;34053;51.088;6.572;2023-03-20T15:06:34;101298.16;;;9.96;64.91
48244;BME280;34053;51.088;6.572;2023-03-20T15:09:11;101286.69;;;10.05;64.68
48244;BME280;34053;51.088;6.572;2023-03-20T15:11:42;101290.97;;;10.11;65.41
48244;BME280;34053;51.088;6.572;2023-03-20T15:14:22;101284.03;;;10.06;65.97
48244;BME280;34053;51.088;6.572;2023-03-20T15:17:00;101287.53;;;10.05;64.93
48244;BME280;34053;51.088;6.572;2023-03-20T15:19:31;101283.03;;;10.15;65.23
48244;BME280;34053;51.088;6.572;2023-03-20T15:22:13;101286.66;;;10.08;64.98
48244;BME280;34053;51.088;6.572;2023-03-20T15:24:52;101276.97;;;10.10;65.30
48244;BME280;34053;51.088;6.572;2023-03-20T15:27:25;101280.38;;;10.17;64.79
48244;BME280;34053;51.088;6.572;2023-03-20T15:29:59;101273.22;;;10.28;64.38